createdAt,value
2023-01-19T00:00:35.634Z,36.90
2023-01-19T00:01:35.535Z,36.91
2023-01-19T00:02:35.544Z,36.92
2023-01-19T00:03:35.518Z,36.88
2023-01-19T00:04:36.503Z,36.89
2023-01-19T00:05:35.518Z,36.87
2023-01-19T00:06:35.600Z,36.87
2023-01-19T00:07:35.509Z,36.86
2023-01-19T00:10:35.517Z,36.86
2023-01-19T00:11:35.523Z,36.85
2023-01-19T00:12:35.517Z,36.84
2023-01-19T00:13:35.544Z,36.86
2023-01-19T00:14:35.534Z,36.84
2023-01-19T00:15:35.539Z,36.83
2023-01-19T00:16:35.576Z,36.83
2023-01-19T00:17:35.570Z,36.83
2023-01-19T00:18:35.565Z,36.82
2023-01-19T00:19:35.559Z,36.81
2023-01-19T00:20:35.674Z,36.83
2023-01-19T00:21:35.573Z,36.80
2023-01-19T00:22:35.571Z,36.82
2023-01-19T00:23:35.581Z,36.80
2023-01-19T00:24:35.583Z,36.81
2023-01-19T00:25:35.617Z,36.77
2023-01-19T00:26:35.597Z,36.80
2023-01-19T00:27:35.599Z,36.79
2023-01-19T00:28:35.602Z,36.79
2023-01-19T00:29:35.604Z,36.75
2023-01-19T00:30:35.604Z,36.75
2023-01-19T00:31:35.675Z,36.77
2023-01-19T00:32:35.601Z,36.75
2023-01-19T00:33:35.606Z,36.74
2023-01-19T00:34:35.643Z,36.77
2023-01-19T00:35:35.645Z,36.75
2023-01-19T00:36:35.653Z,36.73
2023-01-19T00:37:35.645Z,36.74
2023-01-19T00:38:35.647Z,36.72
2023-01-19T00:39:35.644Z,36.70
2023-01-19T00:40:35.648Z,36.73
2023-01-19T00:41:35.650Z,36.70
2023-01-19T00:42:35.656Z,36.70
2023-01-19T00:43:35.643Z,36.70
2023-01-19T00:44:35.649Z,36.70
2023-01-19T00:45:35.704Z,36.71
2023-01-19T00:46:35.655Z,36.68
2023-01-19T00:47:35.659Z,36.68
2023-01-19T00:48:35.672Z,36.66
2023-01-19T00:49:35.645Z,36.68
2023-01-19T00:50:35.641Z,36.68
2023-01-19T00:51:35.651Z,36.67
2023-01-19T00:52:35.627Z,36.68
2023-01-19T00:54:35.604Z,36.65
2023-01-19T00:55:35.614Z,36.64
2023-01-19T00:56:35.627Z,36.65
2023-01-19T00:57:35.624Z,36.64
2023-01-19T00:58:35.627Z,36.64
2023-01-19T00:59:35.639Z,36.61
2023-01-19T01:00:35.632Z,36.62
2023-01-19T01:01:46.087Z,36.63
2023-01-19T01:02:36.667Z,36.64
2023-01-19T01:03:35.548Z,36.61
2023-01-19T01:38:35.542Z,36.43
2023-01-19T03:46:29.540Z,35.89
2023-01-19T03:47:29.517Z,35.84
2023-01-19T03:48:29.500Z,35.87
2023-01-19T03:49:29.453Z,35.83
2023-01-19T03:50:29.425Z,35.85
2023-01-19T03:51:29.407Z,35.85
2023-01-19T05:45:28.026Z,34.88
2023-01-19T05:46:28.110Z,34.88
2023-01-19T05:47:28.019Z,34.85
2023-01-19T05:48:28.000Z,34.89
2023-01-19T05:49:28.014Z,34.85
2023-01-19T05:50:27.977Z,34.87
2023-01-19T05:51:27.985Z,34.86
2023-01-19T05:52:27.975Z,34.86
2023-01-19T05:53:27.973Z,34.87
2023-01-19T05:54:27.963Z,34.85
2023-01-19T05:55:27.954Z,34.84
2023-01-19T05:56:27.949Z,34.85
2023-01-19T05:57:27.937Z,34.81
2023-01-19T05:58:27.945Z,34.82
2023-01-19T05:59:27.924Z,34.84
2023-01-19T06:00:27.924Z,34.84
2023-01-19T06:01:28.004Z,34.82
2023-01-19T06:02:28.012Z,34.80
2023-01-19T06:03:27.935Z,34.81
2023-01-19T06:04:27.904Z,34.82
2023-01-19T06:05:27.895Z,34.83
2023-01-19T06:06:27.952Z,34.81
2023-01-19T06:07:29.142Z,34.79
2023-01-19T06:08:27.876Z,34.82
2023-01-19T06:09:27.860Z,34.80
2023-01-19T06:10:27.862Z,34.82
2023-01-19T06:11:27.867Z,34.81
2023-01-19T06:12:27.856Z,34.83
2023-01-19T06:13:27.846Z,34.80
2023-01-19T06:14:27.841Z,34.78
2023-01-19T06:15:27.828Z,34.81
2023-01-19T06:16:27.898Z,34.81
2023-01-19T06:17:27.833Z,34.82
2023-01-19T06:18:27.808Z,34.81
2023-01-19T06:19:27.808Z,34.79
2023-01-19T06:20:27.797Z,34.80
2023-01-19T06:21:27.793Z,34.81
2023-01-19T06:22:27.785Z,34.80
2023-01-19T06:23:27.785Z,34.81
2023-01-19T06:24:27.777Z,36.10
2023-01-19T06:25:27.767Z,40.03
2023-01-19T06:26:27.743Z,36.77
2023-01-19T06:27:27.734Z,35.71
2023-01-19T06:29:28.738Z,35.78
2023-01-19T06:31:27.624Z,36.42
2023-01-19T06:32:27.498Z,36.09
2023-01-19T06:33:27.431Z,35.98
2023-01-19T06:34:27.348Z,36.02
2023-01-19T06:35:27.282Z,35.99
2023-01-19T06:36:27.210Z,36.01
2023-01-19T06:37:27.147Z,35.96
2023-01-19T06:39:27.038Z,35.97
2023-01-19T06:40:26.995Z,35.98
2023-01-19T06:55:28.018Z,36.02
2023-01-19T06:56:26.740Z,36.01
2023-01-19T06:57:26.721Z,36.01
2023-01-19T06:58:26.669Z,36.02
2023-01-19T06:59:26.635Z,36.04
2023-01-19T07:00:26.610Z,36.03
2023-01-19T07:01:26.633Z,36.01
2023-01-19T07:02:28.561Z,36.01
2023-01-19T07:03:26.504Z,35.99
2023-01-19T07:04:26.416Z,36.01
2023-01-19T07:05:26.375Z,36.01
2023-01-19T07:06:26.345Z,36.03
2023-01-19T07:07:26.300Z,36.01
2023-01-19T07:08:26.250Z,36.03
2023-01-19T07:09:26.240Z,36.03
2023-01-19T07:10:26.221Z,35.98
2023-01-19T07:11:33.068Z,35.99
2023-01-19T07:12:27.077Z,35.99
2023-01-19T07:13:25.977Z,36.00
2023-01-19T07:14:25.901Z,35.99
2023-01-19T07:15:25.831Z,35.96
2023-01-19T07:16:25.765Z,35.98
2023-01-19T07:17:25.678Z,35.98
2023-01-19T07:18:25.597Z,35.96
2023-01-19T07:19:25.522Z,35.94
2023-01-19T07:24:26.627Z,35.91
2023-01-19T07:26:25.701Z,35.81
2023-01-19T09:31:18.598Z,33.15
2023-01-19T09:34:18.274Z,33.20
2023-01-19T09:35:18.202Z,33.18
2023-01-19T09:36:18.192Z,33.16
2023-01-19T09:37:18.755Z,33.20
2023-01-19T09:53:17.237Z,33.28
2023-01-19T09:56:17.012Z,33.29
2023-01-19T09:58:16.910Z,33.28
2023-01-19T09:59:16.878Z,33.25
2023-01-19T10:00:16.867Z,33.23
2023-01-19T10:01:16.888Z,33.26
2023-01-19T10:02:16.820Z,33.25
2023-01-19T10:03:16.860Z,33.23
2023-01-19T10:04:16.788Z,33.23
2023-01-19T10:05:16.777Z,33.23
2023-01-19T10:07:16.758Z,33.23
2023-01-19T10:08:16.723Z,33.22
2023-01-19T10:09:17.289Z,33.23
2023-01-19T10:10:16.716Z,33.20
2023-01-19T10:11:16.690Z,33.18
2023-01-19T10:12:17.928Z,33.20
2023-01-19T10:13:16.651Z,33.19
2023-01-19T10:14:18.144Z,33.20
2023-01-19T10:15:16.500Z,33.21
2023-01-19T10:16:16.454Z,33.16
2023-01-19T10:17:16.355Z,33.14
2023-01-19T10:18:16.253Z,33.10
2023-01-19T10:19:16.176Z,33.11
2023-01-19T10:20:16.102Z,33.14
2023-01-19T10:21:16.026Z,33.08
2023-01-19T10:22:15.947Z,33.07
2023-01-19T10:23:15.923Z,33.05
2023-01-19T10:24:15.940Z,33.05
2023-01-19T10:25:16.225Z,33.05
2023-01-19T10:26:15.883Z,33.05
2023-01-19T10:27:15.833Z,33.02
2023-01-19T10:28:15.833Z,33.06
2023-01-19T10:29:15.828Z,33.02
2023-01-19T10:30:15.818Z,33.01
2023-01-19T10:31:15.835Z,33.04
2023-01-19T10:32:15.868Z,33.07
2023-01-19T10:33:15.812Z,33.06
2023-01-19T10:34:19.128Z,33.05
2023-01-19T10:35:15.707Z,33.06
2023-01-19T10:36:16.243Z,33.05
2023-01-19T10:37:15.567Z,33.06
2023-01-19T10:38:16.233Z,33.04
2023-01-19T10:39:15.400Z,33.05
2023-01-19T10:40:15.349Z,33.08
2023-01-19T10:41:15.327Z,33.07
2023-01-19T10:42:15.186Z,33.08
2023-01-19T10:43:15.094Z,33.08
2023-01-19T10:44:15.060Z,33.05
2023-01-19T10:45:14.955Z,33.07
2023-01-19T10:46:14.939Z,33.06
2023-01-19T10:47:14.808Z,33.10
2023-01-19T10:48:14.737Z,33.10
2023-01-19T10:49:14.735Z,33.08
2023-01-19T10:50:14.614Z,33.07
2023-01-19T10:51:14.549Z,33.08
2023-01-19T10:52:14.477Z,33.10
2023-01-19T10:53:14.383Z,33.10
2023-01-19T10:54:14.324Z,33.09
2023-01-19T10:55:14.263Z,33.10
2023-01-19T10:56:14.244Z,33.08
2023-01-19T10:57:14.207Z,33.10
2023-01-19T10:58:14.156Z,33.10
2023-01-19T10:59:14.213Z,33.11
2023-01-19T11:00:14.215Z,33.11
2023-01-19T11:01:14.304Z,33.12
2023-01-19T11:02:14.414Z,33.09
2023-01-19T11:03:14.201Z,33.09
2023-01-19T11:16:18.771Z,34.48
2023-01-19T11:23:13.480Z,35.91
2023-01-19T11:24:13.405Z,35.92
2023-01-19T11:25:13.327Z,36.14
2023-01-19T11:26:13.246Z,36.26
2023-01-19T11:27:13.175Z,36.52
2023-01-19T11:28:13.087Z,36.65
2023-01-19T11:29:13.007Z,36.91
2023-01-19T11:30:12.933Z,36.95
2023-01-19T11:31:12.916Z,37.05
2023-01-19T11:32:12.780Z,37.32
2023-01-19T11:33:12.683Z,37.39
2023-01-19T11:34:12.613Z,37.50
2023-01-19T11:35:12.520Z,38.12
2023-01-19T11:36:12.445Z,38.18
2023-01-19T11:37:12.369Z,38.18
2023-01-19T11:38:12.285Z,38.13
2023-01-19T11:39:12.175Z,38.16
2023-01-19T11:40:14.345Z,38.55
2023-01-19T11:41:12.015Z,38.47
2023-01-19T11:43:11.895Z,38.72
2023-01-19T13:31:05.791Z,40.09
2023-01-19T13:32:05.676Z,40.02
2023-01-19T13:33:05.630Z,40.08
2023-01-19T13:34:05.616Z,40.02
2023-01-19T13:35:05.582Z,39.98
2023-01-19T13:36:05.569Z,39.97
2023-01-19T13:37:05.521Z,39.87
2023-01-19T13:45:06.299Z,39.81
2023-01-19T18:07:58.215Z,37.65
2023-01-19T18:08:58.151Z,37.67
2023-01-19T18:10:00.864Z,37.65
2023-01-19T18:10:58.044Z,37.65
2023-01-19T18:11:57.971Z,37.64
2023-01-19T18:12:57.906Z,37.64
2023-01-19T18:13:57.825Z,37.63
2023-01-19T18:14:57.763Z,37.61
2023-01-19T18:15:58.432Z,37.61
2023-01-19T18:16:57.626Z,37.61
2023-01-19T18:17:57.548Z,37.60
2023-01-19T18:18:57.475Z,37.62
2023-01-19T18:19:57.474Z,37.58
2023-01-19T18:20:57.348Z,37.61
2023-01-19T18:21:57.285Z,37.55
2023-01-19T18:22:57.207Z,37.56
2023-01-19T18:23:57.147Z,37.55
2023-01-19T18:24:57.067Z,37.55
2023-01-19T18:25:56.993Z,37.57
2023-01-19T18:26:56.927Z,37.54
2023-01-19T18:42:55.782Z,37.46
2023-01-19T18:43:55.694Z,37.44
2023-01-19T18:44:55.628Z,37.41
2023-01-19T18:45:56.422Z,37.41
2023-01-19T20:56:48.580Z,36.50
2023-01-19T20:57:48.532Z,36.51
2023-01-19T20:58:48.473Z,36.52
2023-01-19T21:07:48.071Z,36.46
2023-01-19T21:08:48.044Z,36.46
2023-01-19T21:09:47.995Z,36.45
2023-01-19T21:10:47.957Z,36.44
2023-01-19T21:11:47.906Z,36.43
2023-01-19T21:12:47.894Z,36.44
2023-01-19T21:21:48.426Z,36.39
2023-01-19T21:22:47.464Z,36.41
2023-01-19T21:23:47.383Z,36.40
2023-01-19T21:24:47.350Z,36.35
2023-01-19T21:25:47.320Z,36.37
2023-01-19T21:26:47.245Z,36.37
2023-01-19T21:27:47.181Z,36.35
2023-01-19T21:28:47.122Z,36.35
2023-01-19T21:29:47.078Z,36.34
2023-01-19T21:30:47.135Z,36.34
2023-01-19T21:31:46.995Z,36.34
2023-01-19T21:32:46.932Z,36.33
2023-01-19T21:33:46.881Z,36.29
2023-01-19T21:34:46.825Z,36.29
2023-01-19T21:35:46.779Z,36.30
2023-01-19T21:36:46.734Z,36.29
2023-01-19T21:37:46.673Z,36.27
2023-01-19T21:38:46.614Z,36.27
2023-01-19T21:39:46.552Z,36.30
2023-01-19T21:40:46.492Z,36.27
2023-01-19T21:41:46.441Z,36.24
2023-01-19T21:42:46.374Z,36.23
2023-01-19T21:43:46.522Z,36.22
2023-01-19T21:44:46.290Z,36.23
2023-01-19T21:45:46.295Z,36.22
2023-01-19T21:46:46.172Z,36.22
2023-01-19T21:47:46.125Z,36.20
2023-01-19T21:48:46.108Z,36.20
2023-01-19T21:49:46.008Z,36.20
2023-01-19T21:50:45.952Z,36.21
2023-01-19T21:51:47.896Z,36.19
2023-01-19T21:52:45.805Z,36.16
2023-01-19T21:53:45.759Z,36.17
2023-01-19T21:54:45.709Z,36.18
2023-01-19T21:55:45.669Z,36.16
2023-01-19T21:56:45.619Z,36.14
2023-01-19T21:57:45.589Z,36.12
2023-01-19T21:58:45.519Z,36.15
2023-01-19T23:06:41.520Z,35.64
2023-01-19T23:08:41.405Z,35.62
2023-01-19T23:10:41.280Z,35.58
2023-01-19T23:11:41.255Z,35.57
2023-01-19T23:12:41.163Z,35.56
2023-01-19T23:13:41.105Z,35.55
2023-01-19T23:14:41.027Z,35.57
2023-01-19T23:15:41.016Z,35.53
2023-01-19T23:16:40.927Z,35.51
2023-01-19T23:17:40.879Z,35.48
2023-01-19T23:18:40.829Z,35.52
2023-01-19T23:19:40.735Z,35.50
2023-01-19T23:20:40.687Z,35.50
2023-01-19T23:21:40.656Z,35.47
2023-01-19T23:22:40.565Z,35.49
2023-01-19T23:23:40.499Z,35.49
2023-01-19T23:24:40.439Z,35.45
2023-01-19T23:25:40.371Z,35.48
2023-01-19T23:26:40.308Z,35.47
2023-01-19T23:27:40.255Z,35.47
2023-01-19T23:28:40.186Z,35.46
2023-01-19T23:29:40.126Z,35.47
2023-01-19T23:30:40.171Z,35.46
2023-01-19T23:31:40.077Z,35.45
2023-01-19T23:32:39.947Z,35.44
2023-01-19T23:33:39.911Z,35.42
2023-01-19T23:34:39.811Z,35.40
2023-01-19T23:35:39.746Z,35.40
2023-01-19T23:36:39.688Z,35.38
2023-01-19T23:37:39.617Z,35.38
2023-01-19T23:38:39.569Z,35.38
2023-01-19T23:39:39.524Z,35.40
2023-01-19T23:40:39.450Z,35.37
2023-01-19T23:41:39.392Z,35.36
2023-01-19T23:42:39.323Z,35.35
2023-01-19T23:43:39.251Z,35.35
2023-01-19T23:44:39.205Z,35.36
2023-01-19T23:45:39.133Z,35.34
2023-01-19T23:46:39.075Z,35.34
2023-01-19T23:47:39.003Z,35.32
2023-01-19T23:48:38.942Z,35.31
2023-01-19T23:49:38.877Z,35.30
2023-01-19T23:50:38.794Z,35.31
2023-01-19T23:51:38.724Z,35.30
2023-01-19T23:52:38.674Z,35.32
2023-01-19T23:53:38.601Z,35.29
2023-01-19T23:54:38.547Z,35.30
2023-01-19T23:55:38.492Z,35.28
2023-01-19T23:56:38.421Z,35.28
2023-01-19T23:57:38.360Z,35.27
2023-01-19T23:58:38.306Z,35.31
2023-01-19T23:59:38.277Z,35.25
